Time;durP1;ratioP1;P1;durP2;ratioP2;P2;SDS_P1;SDS_P2;PMS_P1;PMS_P2;Temp;Humidity;BMP_temperature;BMP_pressure;BME280_temperature;BME280_humidity;BME280_pressure;Samples;Min_cycle;Max_cycle;Signal;HPM_P1;HPM_P2
2023/10/03 00:02:03;;;;;;;23.48;14.90;;;20.30;99.90;;;;;;4844640;29;20183;-63
2023/10/03 00:04:28;;;;;;;24.33;15.68;;;20.30;99.90;;;;;;4844362;29;20190;-63
2023/10/03 00:06:54;;;;;;;28.15;15.77;;;20.30;99.90;;;;;;4844525;29;20537;-64
2023/10/03 00:09:20;;;;;;;27.58;14.93;;;20.30;99.90;;;;;;4844422;29;20190;-64
2023/10/03 00:11:45;;;;;;;23.75;14.23;;;20.30;99.90;;;;;;4843241;29;20183;-63
2023/10/03 00:14:11;;;;;;;26.08;15.13;;;20.30;99.90;;;;;;4844250;29;20183;-64
2023/10/03 00:16:38;;;;;;;28.40;15.55;;;20.40;99.90;;;;;;4844451;29;20182;-64
2023/10/03 00:19:04;;;;;;;25.70;15.88;;;20.30;99.90;;;;;;4844259;29;20313;-64
2023/10/03 00:21:29;;;;;;;26.08;14.82;;;20.40;99.90;;;;;;4844484;29;20270;-64
2023/10/03 00:23:55;;;;;;;24.50;14.13;;;20.40;99.90;;;;;;4844215;29;20183;-64
2023/10/03 00:26:22;;;;;;;23.33;14.73;;;20.30;99.90;;;;;;4843967;29;20171;-63
2023/10/03 00:28:49;;;;;;;21.40;14.18;;;20.40;99.90;;;;;;4843931;29;20510;-63
2023/10/03 00:31:15;;;;;;;25.35;14.40;;;20.30;99.90;;;;;;4843847;29;20632;-64
2023/10/03 00:33:41;;;;;;;24.58;14.80;;;20.30;99.90;;;;;;4844065;29;20179;-63
2023/10/03 00:36:18;;;;;;;22.98;14.13;;;20.30;99.90;;;;;;4843890;29;20304;-64
2023/10/03 00:38:45;;;;;;;22.75;13.20;;;20.40;99.90;;;;;;4843815;29;20205;-64
2023/10/03 00:41:12;;;;;;;20.48;14.15;;;20.30;99.90;;;;;;4843678;29;20190;-63
2023/10/03 00:43:50;;;;;;;26.45;14.27;;;20.30;99.90;;;;;;4843625;29;20199;-63
2023/10/03 00:46:18;;;;;;;21.75;13.88;;;20.30;99.90;;;;;;4843957;29;20166;-64
2023/10/03 00:48:44;;;;;;;24.80;14.85;;;20.40;99.90;;;;;;4843639;29;20586;-64
2023/10/03 00:51:11;;;;;;;24.42;14.20;;;20.30;99.90;;;;;;4843684;29;20246;-63
2023/10/03 00:53:37;;;;;;;22.20;14.07;;;20.20;99.90;;;;;;4843502;29;20179;-64
2023/10/03 00:56:09;;;;;;;24.13;14.40;;;20.30;99.90;;;;;;4843974;29;20185;-64
2023/10/03 00:58:36;;;;;;;23.50;13.38;;;20.30;99.90;;;;;;4843652;29;20178;-63
2023/10/03 01:01:03;;;;;;;21.30;13.13;;;20.30;99.90;;;;;;4843477;29;20308;-63
2023/10/03 01:03:37;;;;;;;22.65;14.05;;;20.30;99.90;;;;;;4843383;29;20186;-64
2023/10/03 01:06:11;;;;;;;21.10;13.00;;;20.30;99.90;;;;;;4843105;29;20635;-64
2023/10/03 01:08:39;;;;;;;21.60;12.95;;;20.20;99.90;;;;;;4843446;29;20257;-63
2023/10/03 01:11:15;;;;;;;25.77;14.40;;;20.20;99.90;;;;;;4843391;29;20179;-64
2023/10/03 01:13:47;;;;;;;20.33;12.73;;;20.30;99.90;;;;;;4843429;29;20183;-64
2023/10/03 01:16:20;;;;;;;24.80;13.65;;;20.20;99.90;;;;;;4843392;29;20186;-63
2023/10/03 01:18:47;;;;;;;25.80;14.50;;;20.30;99.90;;;;;;4842944;29;20178;-63
2023/10/03 01:21:13;;;;;;;20.65;12.85;;;20.20;99.90;;;;;;4843186;29;20195;-63
2023/10/03 01:23:40;;;;;;;20.48;12.75;;;20.20;99.90;;;;;;4843069;29;20179;-64
2023/10/03 01:26:09;;;;;;;20.65;12.25;;;20.20;99.90;;;;;;4843217;29;20190;-64
2023/10/03 01:28:35;;;;;;;21.15;12.60;;;20.20;99.90;;;;;;4843064;29;20190;-63
2023/10/03 01:31:01;;;;;;;24.30;12.27;;;20.30;99.90;;;;;;4842912;29;20185;-63
2023/10/03 01:33:30;;;;;;;19.67;12.15;;;20.30;99.90;;;;;;4842837;29;20195;-64
2023/10/03 01:35:56;;;;;;;19.42;12.60;;;20.30;99.90;;;;;;4843010;29;20277;-64
2023/10/03 01:38:22;;;;;;;21.35;12.45;;;20.20;99.90;;;;;;4842994;29;20261;-63
2023/10/03 01:40:52;;;;;;;17.92;11.65;;;20.20;99.90;;;;;;4842996;29;20250;-64
2023/10/03 01:43:18;;;;;;;18.77;10.98;;;20.20;99.90;;;;;;4842778;29;20190;-63
2023/10/03 01:45:43;;;;;;;17.77;11.40;;;20.20;99.90;;;;;;4842630;29;20203;-64
2023/10/03 01:48:12;;;;;;;17.98;11.57;;;20.20;99.90;;;;;;4842665;29;20179;-63
2023/10/03 01:50:38;;;;;;;17.25;11.38;;;20.20;99.90;;;;;;4842802;29;20198;-64
2023/10/03 01:53:07;;;;;;;17.00;11.27;;;20.20;99.90;;;;;;4842663;29;20206;-64
2023/10/03 01:55:33;;;;;;;16.33;10.80;;;20.20;99.90;;;;;;4842694;29;20618;-63
2023/10/03 01:57:59;;;;;;;17.30;10.18;;;20.20;99.90;;;;;;4842643;29;20234;-63
2023/10/03 02:00:26;;;;;;;17.50;9.75;;;20.20;99.90;;;;;;4842491;29;20206;-63
2023/10/03 02:03:05;;;;;;;15.40;9.88;;;20.30;99.90;;;;;;4842762;29;20255;-63
2023/10/03 02:05:38;;;;;;;16.98;10.15;;;20.30;99.90;;;;;;4842504;29;20234;-64
2023/10/03 02:08:10;;;;;;;16.05;10.15;;;20.30;99.90;;;;;;4842692;29;20178;-64
2023/10/03 02:10:36;;;;;;;17.10;9.68;;;20.40;99.90;;;;;;4842514;29;20181;-64
2023/10/03 02:13:17;;;;;;;16.80;9.38;;;20.40;99.90;;;;;;4842374;29;20182;-63
2023/10/03 02:15:50;;;;;;;16.27;9.07;;;20.40;99.90;;;;;;4842589;29;20183;-64
2023/10/03 02:18:18;;;;;;;15.48;9.23;;;20.40;99.90;;;;;;4842836;29;20186;-64
2023/10/03 02:20:52;;;;;;;14.07;7.85;;;20.30;99.90;;;;;;4842624;29;20270;-64
2023/10/03 02:23:25;;;;;;;13.50;8.15;;;20.30;99.90;;;;;;4842316;29;20205;-64
2023/10/03 02:25:55;;;;;;;14.43;8.05;;;20.30;99.90;;;;;;4842569;29;20182;-63
2023/10/03 02:28:21;;;;;;;16.88;8.70;;;20.40;99.90;;;;;;4842459;29;20641;-62
2023/10/03 02:30:54;;;;;;;13.52;6.95;;;20.30;99.90;;;;;;4842485;29;20198;-63
2023/10/03 02:33:22;;;;;;;12.25;7.20;;;20.30;99.90;;;;;;4842534;29;20175;-64
2023/10/03 02:35:50;;;;;;;10.55;6.60;;;20.30;99.90;;;;;;4845379;29;20187;-64
2023/10/03 02:38:29;;;;;;;11.30;6.85;;;20.30;99.90;;;;;;4846094;29;20240;-65
2023/10/03 02:40:59;;;;;;;10.60;6.78;;;20.30;99.90;;;;;;4845966;29;20214;-65
2023/10/03 02:43:27;;;;;;;12.40;7.65;;;20.30;99.90;;;;;;4845946;29;20254;-64
2023/10/03 02:45:53;;;;;;;13.13;7.32;;;20.40;99.90;;;;;;4845929;29;20183;-64
2023/10/03 02:48:20;;;;;;;10.52;6.45;;;20.30;99.90;;;;;;4845652;29;20205;-64
2023/10/03 02:50:48;;;;;;;10.57;6.28;;;20.20;99.90;;;;;;4845821;29;20649;-62
2023/10/03 02:53:20;;;;;;;9.50;5.75;;;20.20;99.90;;;;;;4845839;29;20197;-64
2023/10/03 02:55:54;;;;;;;9.13;5.63;;;20.30;99.90;;;;;;4845654;29;20175;-63
2023/10/03 02:58:20;;;;;;;9.95;5.25;;;20.20;99.90;;;;;;4845849;29;20186;-64
2023/10/03 03:00:53;;;;;;;8.38;5.00;;;20.20;99.90;;;;;;4845560;29;20715;-63
2023/10/03 03:03:19;;;;;;;8.00;5.00;;;20.20;99.90;;;;;;4845731;29;20593;-64
2023/10/03 03:05:48;;;;;;;10.55;5.10;;;20.10;99.90;;;;;;4845637;29;20266;-62
2023/10/03 03:10:43;;;;;;;8.68;5.15;;;20.20;99.90;;;;;;4845507;29;20205;-64
2023/10/03 03:13:12;;;;;;;9.43;5.28;;;20.10;99.90;;;;;;4845366;29;20203;-64
2023/10/03 03:15:38;;;;;;;8.55;5.05;;;20.10;99.90;;;;;;4845190;29;20230;-64
2023/10/03 03:18:04;;;;;;;10.43;5.60;;;20.10;99.90;;;;;;4845211;29;20214;-64
2023/10/03 03:20:37;;;;;;;9.05;5.25;;;20.00;99.90;;;;;;4845474;29;20813;-63
2023/10/03 03:23:03;;;;;;;7.93;5.00;;;20.10;99.90;;;;;;4845292;29;20190;-63
2023/10/03 03:25:38;;;;;;;10.82;5.70;;;20.00;99.90;;;;;;4845204;29;20178;-64
2023/10/03 03:28:13;;;;;;;8.07;5.13;;;19.90;99.90;;;;;;4845206;29;20178;-63
2023/10/03 03:30:45;;;;;;;9.60;5.05;;;20.00;99.90;;;;;;4845226;29;20187;-63
2023/10/03 03:33:19;;;;;;;9.45;5.63;;;19.80;99.90;;;;;;4845136;29;20190;-64
2023/10/03 03:35:47;;;;;;;12.38;5.82;;;19.80;99.90;;;;;;4845112;29;20216;-62
2023/10/03 03:38:18;;;;;;;7.63;5.30;;;19.70;99.90;;;;;;4844951;29;20599;-63
2023/10/03 03:40:53;;;;;;;8.38;5.25;;;19.70;99.90;;;;;;4844737;29;20723;-64
2023/10/03 03:43:19;;;;;;;8.23;5.63;;;19.60;99.90;;;;;;4845069;29;20179;-64
2023/10/03 03:45:44;;;;;;;9.00;5.10;;;19.60;99.90;;;;;;4845006;29;20183;-64
2023/10/03 03:48:10;;;;;;;11.30;5.53;;;19.60;99.90;;;;;;4844800;29;20663;-63
2023/10/03 03:50:37;;;;;;;10.38;4.70;;;19.60;99.90;;;;;;4844770;29;20185;-63
2023/10/03 03:53:03;;;;;;;7.95;5.57;;;19.60;99.90;;;;;;4844697;29;20637;-63
2023/10/03 03:55:29;;;;;;;8.35;4.75;;;19.50;99.90;;;;;;4844652;29;20183;-64
2023/10/03 03:57:59;;;;;;;9.63;5.63;;;19.50;99.90;;;;;;4844751;29;20625;-63
2023/10/03 04:00:28;;;;;;;11.05;5.47;;;19.50;99.90;;;;;;4844659;29;20218;-63
2023/10/03 04:02:57;;;;;;;10.95;5.32;;;19.50;99.90;;;;;;4844660;29;20211;-63
2023/10/03 04:05:25;;;;;;;8.55;5.20;;;19.40;99.90;;;;;;4843893;29;20302;-63
2023/10/03 04:07:51;;;;;;;9.40;5.63;;;19.40;99.90;;;;;;4843573;29;20191;-63
2023/10/03 04:10:17;;;;;;;13.73;6.55;;;19.40;99.90;;;;;;4843466;29;20771;-64
2023/10/03 04:12:42;;;;;;;11.13;5.93;;;19.40;99.90;;;;;;4843472;29;20257;-64
2023/10/03 04:15:18;;;;;;;8.35;5.30;;;19.30;99.90;;;;;;4843373;29;20175;-64
2023/10/03 04:17:44;;;;;;;11.20;5.47;;;19.40;99.90;;;;;;4843275;29;20186;-63
2023/10/03 04:20:20;;;;;;;13.75;6.32;;;19.40;99.90;;;;;;4843030;29;20696;-63
2023/10/03 04:22:50;;;;;;;11.85;6.00;;;19.40;99.90;;;;;;4843551;29;20186;-62
2023/10/03 04:25:20;;;;;;;10.60;5.93;;;19.40;99.90;;;;;;4843565;29;20282;-64
2023/10/03 04:27:51;;;;;;;9.65;5.68;;;19.40;99.90;;;;;;4843210;29;20179;-63
2023/10/03 04:30:19;;;;;;;11.43;6.20;;;19.20;99.90;;;;;;4843116;29;20709;-64
2023/10/03 04:32:47;;;;;;;10.27;6.47;;;19.10;99.90;;;;;;4843005;29;20183;-63
2023/10/03 04:35:13;;;;;;;9.52;5.80;;;19.10;99.90;;;;;;4856192;29;20576;-63
2023/10/03 04:37:43;;;;;;;13.55;6.40;;;19.10;99.90;;;;;;4861365;29;20674;-64
2023/10/03 04:40:15;;;;;;;14.68;6.35;;;19.10;99.90;;;;;;4861486;29;20218;-62
2023/10/03 04:42:41;;;;;;;13.65;6.10;;;19.10;99.90;;;;;;4861429;29;20470;-64
2023/10/03 04:45:13;;;;;;;10.48;5.25;;;19.20;99.90;;;;;;4853105;29;20194;-64
2023/10/03 04:47:41;;;;;;;10.40;6.10;;;19.20;99.90;;;;;;4860972;29;20525;-63
2023/10/03 04:50:08;;;;;;;14.23;6.13;;;19.10;99.90;;;;;;4855306;29;20186;-64
2023/10/03 04:52:34;;;;;;;7.63;5.78;;;19.10;99.90;;;;;;4855766;29;20186;-63
2023/10/03 04:55:00;;;;;;;9.15;5.70;;;19.10;99.90;;;;;;4833313;29;20183;-63
2023/10/03 04:57:28;;;;;;;12.02;6.20;;;19.00;99.90;;;;;;4841623;29;20243;-63
2023/10/03 04:59:59;;;;;;;10.25;5.97;;;19.00;99.90;;;;;;4842280;29;20218;-69
2023/10/03 05:02:28;;;;;;;12.70;6.10;;;19.00;99.90;;;;;;4842350;29;20190;-68
2023/10/03 05:04:57;;;;;;;10.05;5.72;;;19.00;99.90;;;;;;4805267;29;1118289;-68
2023/10/03 05:07:23;;;;;;;8.88;5.65;;;19.10;99.90;;;;;;4843406;29;20274;-68
2023/10/03 05:09:51;;;;;;;11.80;5.78;;;19.10;99.90;;;;;;4843310;29;20631;-68
2023/10/03 05:12:20;;;;;;;10.45;6.07;;;19.10;99.90;;;;;;4843226;29;20262;-68
2023/10/03 05:14:47;;;;;;;9.45;6.25;;;19.10;99.90;;;;;;4843414;29;20216;-68
2023/10/03 05:17:14;;;;;;;11.25;5.68;;;19.10;99.90;;;;;;4843070;29;20652;-68
2023/10/03 05:19:41;;;;;;;9.00;6.20;;;19.10;99.90;;;;;;4843036;29;20222;-68
2023/10/03 05:22:08;;;;;;;7.85;6.10;;;19.10;99.90;;;;;;4843097;29;20198;-68
2023/10/03 05:24:35;;;;;;;8.68;5.93;;;19.00;99.90;;;;;;4843029;29;20276;-68
2023/10/03 05:27:00;;;;;;;11.40;5.95;;;19.00;99.90;;;;;;4843240;29;20189;-68
2023/10/03 05:29:29;;;;;;;8.57;6.10;;;19.00;99.90;;;;;;4843154;29;20194;-68
2023/10/03 05:31:55;;;;;;;9.93;5.90;;;18.90;99.90;;;;;;4843053;29;20224;-68
2023/10/03 05:34:22;;;;;;;10.57;6.47;;;18.90;99.90;;;;;;4842920;29;20648;-67
2023/10/03 05:36:49;;;;;;;10.30;6.68;;;18.90;99.90;;;;;;4842927;29;20723;-68
2023/10/03 05:39:18;;;;;;;8.80;6.10;;;18.90;99.90;;;;;;4842761;29;20202;-68
2023/10/03 05:41:44;;;;;;;10.82;5.85;;;18.90;99.90;;;;;;4842723;29;20632;-68
2023/10/03 05:44:13;;;;;;;11.10;6.10;;;18.80;99.90;;;;;;4842783;29;20182;-67
2023/10/03 05:46:40;;;;;;;10.63;6.32;;;18.90;99.90;;;;;;4826643;29;20237;-68
2023/10/03 05:49:06;;;;;;;11.68;6.60;;;18.80;99.90;;;;;;4842856;29;20262;-69
2023/10/03 05:51:33;;;;;;;11.23;6.20;;;18.80;99.90;;;;;;4842711;29;20282;-69
2023/10/03 05:53:59;;;;;;;11.68;6.65;;;18.80;99.90;;;;;;4842541;29;20179;-68
2023/10/03 05:56:25;;;;;;;9.88;5.97;;;18.80;99.90;;;;;;4842869;29;20234;-68
2023/10/03 05:58:51;;;;;;;11.27;6.65;;;18.90;99.90;;;;;;4842713;29;20175;-68
2023/10/03 06:01:17;;;;;;;11.20;6.53;;;18.90;99.90;;;;;;4842479;29;20190;-70
2023/10/03 06:03:43;;;;;;;10.90;6.90;;;18.90;99.90;;;;;;4842526;29;20676;-68
2023/10/03 06:06:10;;;;;;;10.30;6.57;;;19.00;99.90;;;;;;4842763;29;20238;-69
2023/10/03 06:08:35;;;;;;;9.07;6.50;;;18.90;99.90;;;;;;4841613;29;20202;-68
2023/10/03 06:11:05;;;;;;;10.55;6.28;;;18.90;99.90;;;;;;4842370;29;20273;-68
2023/10/03 06:13:31;;;;;;;12.43;6.20;;;19.00;99.90;;;;;;4842596;29;20183;-68
2023/10/03 06:16:00;;;;;;;11.15;6.93;;;19.00;99.90;;;;;;4842520;29;20270;-64
2023/10/03 06:18:29;;;;;;;10.32;6.45;;;19.00;99.90;;;;;;4842483;29;20175;-68
2023/10/03 06:20:57;;;;;;;10.55;6.10;;;18.90;99.90;;;;;;4842286;29;20688;-68
2023/10/03 06:23:23;;;;;;;11.38;6.55;;;19.00;99.90;;;;;;4856474;29;20579;-68
2023/10/03 06:25:49;;;;;;;8.15;5.68;;;19.00;99.90;;;;;;4842474;29;20179;-68
2023/10/03 06:28:14;;;;;;;10.32;5.65;;;18.90;99.90;;;;;;4842519;29;20179;-68
2023/10/03 06:30:40;;;;;;;11.00;6.05;;;19.00;99.90;;;;;;4842450;29;20231;-68
2023/10/03 06:33:07;;;;;;;9.65;6.82;;;19.00;99.90;;;;;;4842300;29;20194;-68
2023/10/03 06:35:33;;;;;;;11.00;6.93;;;19.00;99.90;;;;;;4856331;29;20186;-65
2023/10/03 06:37:58;;;;;;;10.25;6.25;;;19.10;99.90;;;;;;4842207;29;20186;-68
2023/10/03 06:40:24;;;;;;;10.75;6.38;;;19.10;99.90;;;;;;4842388;29;20245;-68
2023/10/03 06:42:50;;;;;;;11.60;6.63;;;19.10;99.90;;;;;;4842392;29;20572;-68
2023/10/03 06:45:16;;;;;;;12.60;6.53;;;19.20;99.90;;;;;;4842177;29;20218;-68
2023/10/03 06:47:42;;;;;;;7.95;6.65;;;19.10;99.90;;;;;;4842200;29;20290;-68
2023/10/03 06:50:08;;;;;;;9.60;6.63;;;19.00;99.90;;;;;;4842142;29;20704;-68
2023/10/03 06:52:35;;;;;;;9.73;6.38;;;18.80;99.90;;;;;;4842120;29;20633;-68
2023/10/03 06:55:04;;;;;;;9.88;6.97;;;18.80;99.90;;;;;;4842232;29;20641;-70
2023/10/03 06:57:29;;;;;;;10.75;6.57;;;18.80;99.90;;;;;;4842243;29;20186;-68
2023/10/03 06:59:56;;;;;;;7.40;6.03;;;18.90;99.90;;;;;;4842099;29;20206;-68
2023/10/03 07:02:22;;;;;;;7.00;5.93;;;18.80;99.90;;;;;;4842070;29;20195;-68
2023/10/03 07:04:47;;;;;;;8.20;5.38;;;18.80;99.90;;;;;;4841684;29;20596;-67
2023/10/03 07:07:13;;;;;;;11.10;5.82;;;18.80;99.90;;;;;;4842006;29;20549;-68
2023/10/03 07:09:39;;;;;;;10.27;5.90;;;18.70;99.90;;;;;;4841996;29;20210;-68
2023/10/03 07:12:08;;;;;;;7.03;5.28;;;18.80;99.90;;;;;;4842108;29;20718;-69
2023/10/03 07:14:37;;;;;;;10.05;5.78;;;18.80;99.90;;;;;;4841850;29;20652;-68
2023/10/03 07:17:03;;;;;;;7.57;5.53;;;18.70;99.90;;;;;;4841961;29;20185;-68
2023/10/03 07:19:30;;;;;;;11.38;5.75;;;18.70;99.90;;;;;;4841813;29;20202;-68
2023/10/03 07:21:56;;;;;;;8.80;5.65;;;18.80;99.90;;;;;;4845107;29;20189;-68
2023/10/03 07:24:24;;;;;;;9.85;5.78;;;18.80;99.90;;;;;;4845218;29;20210;-68
2023/10/03 07:26:50;;;;;;;9.60;5.75;;;18.80;99.90;;;;;;4845209;29;20535;-68
2023/10/03 07:29:17;;;;;;;11.63;6.28;;;18.90;99.90;;;;;;4845140;29;20191;-69
2023/10/03 07:31:43;;;;;;;10.98;5.70;;;18.90;99.90;;;;;;4845043;29;20191;-68
2023/10/03 07:34:09;;;;;;;10.23;6.03;;;18.80;99.90;;;;;;4844933;29;20175;-67
2023/10/03 07:36:36;;;;;;;9.43;6.00;;;18.80;99.90;;;;;;4844927;29;20674;-68
2023/10/03 07:39:03;;;;;;;9.75;5.10;;;18.80;99.90;;;;;;4844946;29;20190;-69
2023/10/03 07:41:29;;;;;;;7.55;4.20;;;18.80;99.90;;;;;;4844971;29;20239;-68
2023/10/03 07:43:54;;;;;;;7.15;4.10;;;18.80;99.90;;;;;;4844822;29;20183;-68
2023/10/03 07:46:21;;;;;;;7.30;3.20;;;18.70;99.90;;;;;;4844812;29;20189;-69
2023/10/03 07:48:48;;;;;;;6.03;3.10;;;18.70;99.90;;;;;;4844648;29;20536;-69
2023/10/03 07:51:17;;;;;;;7.35;2.97;;;18.60;99.90;;;;;;4844794;29;20270;-68
2023/10/03 07:53:43;;;;;;;6.90;3.08;;;18.60;99.90;;;;;;4844772;29;20189;-69
2023/10/03 07:56:25;;;;;;;4.70;2.20;;;18.60;99.90;;;;;;4844680;29;20262;-66
2023/10/03 07:58:53;;;;;;;5.35;2.30;;;18.50;99.90;;;;;;4844540;29;20190;-68
2023/10/03 08:01:20;;;;;;;3.97;1.80;;;18.30;99.90;;;;;;4844333;29;20226;-68
2023/10/03 08:03:45;;;;;;;4.22;2.40;;;18.30;99.90;;;;;;4844727;29;20175;-68
2023/10/03 08:06:14;;;;;;;5.20;2.58;;;18.30;99.90;;;;;;4844468;29;20626;-68
2023/10/03 08:08:41;;;;;;;4.80;2.03;;;18.30;99.90;;;;;;4844448;29;20210;-68
2023/10/03 08:11:09;;;;;;;5.80;2.00;;;18.30;99.90;;;;;;4844443;29;20189;-69
2023/10/03 08:13:38;;;;;;;4.57;1.98;;;18.30;99.90;;;;;;4844293;29;20777;-68
2023/10/03 08:16:05;;;;;;;6.47;2.00;;;18.50;99.90;;;;;;4844417;29;20230;-68
2023/10/03 08:18:36;;;;;;;5.45;2.05;;;18.40;99.90;;;;;;4844411;29;20250;-68
2023/10/03 08:21:03;;;;;;;6.80;2.58;;;18.30;99.90;;;;;;4844111;29;20693;-68
2023/10/03 08:23:37;;;;;;;7.00;2.25;;;18.40;99.90;;;;;;4844193;29;20303;-68
2023/10/03 08:26:03;;;;;;;5.97;1.80;;;18.30;99.90;;;;;;4844115;29;20759;-68
2023/10/03 08:28:32;;;;;;;7.30;2.50;;;18.40;99.90;;;;;;4844000;29;20183;-68
2023/10/03 08:31:06;;;;;;;4.80;2.03;;;18.40;99.90;;;;;;4844087;29;20331;-68
2023/10/03 08:33:36;;;;;;;4.45;1.88;;;18.40;99.90;;;;;;4843446;29;20183;-68
2023/10/03 08:36:14;;;;;;;9.50;1.90;;;18.40;99.90;;;;;;4843978;29;20179;-68
2023/10/03 08:38:43;;;;;;;3.83;1.80;;;18.40;99.90;;;;;;4843847;29;20178;-68
2023/10/03 08:41:17;;;;;;;4.15;1.30;;;18.30;99.90;;;;;;4843888;29;20227;-66
2023/10/03 08:43:46;;;;;;;3.20;1.45;;;18.40;99.90;;;;;;4843997;29;20194;-68
2023/10/03 08:46:15;;;;;;;3.97;1.52;;;18.20;99.90;;;;;;4843808;29;20217;-68
2023/10/03 08:48:43;;;;;;;3.17;1.40;;;18.10;99.90;;;;;;4843796;29;20279;-68
2023/10/03 08:51:13;;;;;;;5.60;1.40;;;18.10;99.90;;;;;;4843565;29;20282;-68
2023/10/03 08:53:47;;;;;;;3.53;1.20;;;18.30;99.90;;;;;;4844034;29;20178;-68
2023/10/03 08:56:18;;;;;;;4.65;1.40;;;18.30;99.90;;;;;;4843676;29;20251;-68
2023/10/03 08:58:48;;;;;;;5.88;1.55;;;18.30;99.90;;;;;;4843657;29;20175;-69
2023/10/03 09:01:17;;;;;;;2.95;1.30;;;18.20;99.90;;;;;;4843444;29;20262;-69
2023/10/03 09:03:48;;;;;;;5.10;1.35;;;18.20;99.90;;;;;;4843293;29;20191;-68
2023/10/03 09:06:23;;;;;;;3.55;0.98;;;18.10;99.90;;;;;;4843241;29;20282;-68
2023/10/03 09:09:08;;;;;;;4.43;1.30;;;18.10;99.90;;;;;;4843333;29;20193;-68
2023/10/03 09:11:38;;;;;;;1.85;0.90;;;18.00;99.90;;;;;;4843373;29;20182;-68
2023/10/03 09:14:08;;;;;;;2.58;0.98;;;17.80;99.90;;;;;;4843244;29;20229;-68
2023/10/03 09:16:38;;;;;;;2.60;1.05;;;17.90;99.90;;;;;;4843190;29;20216;-68
2023/10/03 09:19:12;;;;;;;1.83;1.00;;;17.80;99.90;;;;;;4843295;29;20183;-68
2023/10/03 09:21:38;;;;;;;3.17;0.95;;;17.80;99.90;;;;;;4826980;29;20189;-68
2023/10/03 09:24:17;;;;;;;2.47;1.13;;;17.80;99.90;;;;;;4843227;29;20274;-68
2023/10/03 09:27:07;;;;;;;3.42;1.10;;;17.70;99.90;;;;;;4843005;29;20594;-68
2023/10/03 09:29:33;;;;;;;1.92;0.90;;;17.70;99.90;;;;;;4843212;29;20189;-67
2023/10/03 09:32:16;;;;;;;4.28;0.93;;;17.80;99.90;;;;;;4843125;29;20209;-68
2023/10/03 09:34:43;;;;;;;2.20;1.05;;;17.90;99.90;;;;;;4857175;29;20179;-68
2023/10/03 09:37:09;;;;;;;2.00;1.10;;;17.70;99.90;;;;;;4842867;29;20190;-69
2023/10/03 09:39:51;;;;;;;2.80;1.25;;;17.70;99.90;;;;;;4843060;29;20222;-68
2023/10/03 09:42:23;;;;;;;3.42;1.10;;;17.70;99.90;;;;;;4842845;29;20240;-68
2023/10/03 09:44:49;;;;;;;4.22;1.52;;;17.80;99.90;;;;;;4842646;29;20179;-69
2023/10/03 09:47:27;;;;;;;3.33;1.42;;;17.80;99.90;;;;;;4842731;29;20189;-68
2023/10/03 09:50:03;;;;;;;3.33;1.30;;;17.80;99.90;;;;;;4842717;29;20195;-68
2023/10/03 09:52:30;;;;;;;3.65;1.27;;;17.90;99.90;;;;;;4842867;29;20182;-68
2023/10/03 09:55:00;;;;;;;2.25;0.95;;;18.00;99.90;;;;;;4842717;29;20201;-68
2023/10/03 09:57:31;;;;;;;3.47;1.10;;;18.10;99.90;;;;;;4842671;29;20247;-68
2023/10/03 09:59:58;;;;;;;2.05;1.02;;;18.10;99.90;;;;;;4842551;29;20702;-67
2023/10/03 10:02:31;;;;;;;1.67;0.80;;;18.10;99.90;;;;;;4842510;29;20218;-68
2023/10/03 10:05:27;;;;;;;3.90;1.33;;;18.20;99.90;;;;;;4842522;29;20230;-68
2023/10/03 10:08:27;;;;;;;2.90;1.27;;;18.30;99.90;;;;;;4842700;29;20265;-68
2023/10/03 10:11:12;;;;;;;3.90;1.20;;;18.50;99.90;;;;;;4842459;29;20222;-69
2023/10/03 10:13:44;;;;;;;4.72;1.30;;;18.60;99.90;;;;;;4842710;29;20179;-68
2023/10/03 10:18:45;;;;;;;2.40;1.25;;;18.80;99.90;;;;;;4842431;29;20189;-68
2023/10/03 10:21:20;;;;;;;2.40;1.20;;;18.70;99.90;;;;;;4842230;29;20212;-68
2023/10/03 10:24:15;;;;;;;2.97;1.20;;;18.70;99.90;;;;;;4842527;29;20185;-68
2023/10/03 10:26:55;;;;;;;3.85;1.27;;;18.70;99.90;;;;;;4842333;29;20632;-68
2023/10/03 10:29:24;;;;;;;1.42;1.27;;;18.60;99.90;;;;;;4842302;29;20540;-68
2023/10/03 10:32:03;;;;;;;2.53;1.20;;;18.40;99.90;;;;;;4842563;29;20178;-69
2023/10/03 10:34:40;;;;;;;2.80;1.20;;;18.30;99.90;;;;;;4842515;29;20498;-68
2023/10/03 10:37:10;;;;;;;2.75;1.15;;;18.30;99.90;;;;;;4842406;29;20194;-69
2023/10/03 10:39:54;;;;;;;2.17;1.17;;;18.20;99.90;;;;;;4842231;29;20215;-68
2023/10/03 10:42:29;;;;;;;1.75;1.13;;;18.30;99.90;;;;;;4842498;29;20185;-69
2023/10/03 10:45:13;;;;;;;2.30;0.88;;;18.30;99.90;;;;;;4842414;29;20190;-69
2023/10/03 10:47:48;;;;;;;2.88;1.10;;;18.50;99.90;;;;;;4842224;29;20274;-68
2023/10/03 10:50:14;;;;;;;3.90;1.20;;;18.70;99.90;;;;;;4842095;29;20187;-68
2023/10/03 10:53:02;;;;;;;3.35;1.15;;;18.80;99.90;;;;;;4842648;29;20479;-68
2023/10/03 10:55:29;;;;;;;2.38;1.15;;;18.80;99.90;;;;;;4843362;29;20178;-68
2023/10/03 10:58:08;;;;;;;3.42;1.10;;;18.80;99.90;;;;;;4845693;29;20183;-68
2023/10/03 11:00:34;;;;;;;1.50;0.93;;;18.60;99.90;;;;;;4845474;29;20221;-68
2023/10/03 11:03:09;;;;;;;4.55;1.10;;;18.60;99.90;;;;;;4845490;29;20175;-68
2023/10/03 11:05:48;;;;;;;1.33;0.98;;;18.40;99.90;;;;;;4845444;29;20644;-68
2023/10/03 11:08:15;;;;;;;2.00;0.88;;;18.30;99.90;;;;;;4845473;29;20213;-68
2023/10/03 11:10:54;;;;;;;2.33;0.85;;;18.20;99.90;;;;;;4845466;29;20235;-68
2023/10/03 11:13:21;;;;;;;1.80;0.80;;;18.10;99.90;;;;;;4845386;29;20652;-69
2023/10/03 11:15:53;;;;;;;2.33;1.10;;;18.10;99.90;;;;;;4845576;29;20209;-68
2023/10/03 11:18:30;;;;;;;2.35;0.80;;;18.30;99.90;;;;;;4845410;29;20182;-69
2023/10/03 11:20:58;;;;;;;2.35;1.15;;;18.50;99.90;;;;;;4845177;29;20616;-68
2023/10/03 11:23:24;;;;;;;1.85;1.10;;;18.60;99.90;;;;;;4845321;29;20648;-68
2023/10/03 11:25:54;;;;;;;3.30;1.23;;;18.80;99.90;;;;;;4828588;29;20273;-69
2023/10/03 11:28:19;;;;;;;2.90;1.33;;;18.90;99.90;;;;;;4845474;29;20183;-69
2023/10/03 11:30:59;;;;;;;4.30;1.63;;;19.00;99.90;;;;;;4845308;29;20179;-67
2023/10/03 11:33:24;;;;;;;4.30;1.95;;;19.00;99.90;;;;;;4845067;29;20198;-68
2023/10/03 11:35:54;;;;;;;2.58;1.55;;;19.00;99.90;;;;;;4844942;29;20178;-68
2023/10/03 11:38:19;;;;;;;2.65;1.77;;;19.10;99.90;;;;;;4844940;29;20177;-68
2023/10/03 11:40:47;;;;;;;3.50;2.08;;;19.20;99.90;;;;;;4828428;29;20215;-66
2023/10/03 11:43:19;;;;;;;4.32;1.92;;;19.40;99.90;;;;;;4845038;29;20190;-68
2023/10/03 11:45:55;;;;;;;3.85;2.20;;;19.40;99.90;;;;;;4844813;29;20709;-67
2023/10/03 11:48:22;;;;;;;4.18;1.90;;;19.50;99.90;;;;;;4844803;29;20178;-67
2023/10/03 11:50:49;;;;;;;4.72;2.00;;;19.40;99.90;;;;;;4844586;29;20219;-68
2023/10/03 11:53:15;;;;;;;4.53;1.75;;;19.30;99.90;;;;;;4844886;29;20218;-68
2023/10/03 11:55:42;;;;;;;3.83;1.77;;;19.50;99.90;;;;;;4844943;29;20238;-68
2023/10/03 11:58:12;;;;;;;2.88;1.70;;;19.40;99.90;;;;;;4844715;29;20227;-68
2023/10/03 12:00:42;;;;;;;2.92;2.00;;;19.40;99.90;;;;;;4844489;29;20218;-68
2023/10/03 12:03:09;;;;;;;3.40;1.80;;;19.20;99.90;;;;;;4844613;29;20239;-68
2023/10/03 12:05:36;;;;;;;4.88;1.90;;;19.00;99.90;;;;;;4844423;29;20242;-68
2023/10/03 12:08:05;;;;;;;3.72;1.92;;;18.90;99.90;;;;;;4858716;29;20187;-68
2023/10/03 12:10:31;;;;;;;3.42;2.40;;;18.70;99.90;;;;;;4844665;29;20189;-68
2023/10/03 12:13:00;;;;;;;3.45;2.17;;;18.80;99.90;;;;;;4844551;29;20194;-66
2023/10/03 12:15:25;;;;;;;5.47;2.45;;;18.90;99.90;;;;;;4844618;29;20185;-68
2023/10/03 12:17:52;;;;;;;4.63;2.10;;;19.00;99.90;;;;;;4844148;29;20712;-67
2023/10/03 12:20:20;;;;;;;5.05;2.25;;;19.30;99.90;;;;;;4844317;29;20206;-67
2023/10/03 12:22:46;;;;;;;2.67;2.03;;;19.20;99.90;;;;;;4844540;29;20183;-67
2023/10/03 12:25:14;;;;;;;4.00;2.00;;;19.00;99.90;;;;;;4844299;29;20653;-67
2023/10/03 12:27:43;;;;;;;4.40;2.35;;;18.90;99.90;;;;;;4844081;29;20250;-68
2023/10/03 12:30:15;;;;;;;4.55;2.28;;;18.80;99.90;;;;;;4844010;29;20537;-67
2023/10/03 12:32:44;;;;;;;3.08;2.17;;;18.80;99.90;;;;;;4843964;29;20652;-67
2023/10/03 12:35:10;;;;;;;4.20;2.58;;;18.60;99.90;;;;;;4844122;29;20209;-66
2023/10/03 12:37:37;;;;;;;5.18;2.40;;;18.50;99.90;;;;;;4844094;29;20249;-67
2023/10/03 12:40:04;;;;;;;4.45;2.65;;;18.20;99.90;;;;;;4843885;29;20218;-68
2023/10/03 12:42:33;;;;;;;3.97;2.70;;;18.30;99.90;;;;;;4843930;29;20175;-67
2023/10/03 12:45:03;;;;;;;4.00;2.22;;;18.40;99.90;;;;;;4843648;29;20179;-66
2023/10/03 12:47:29;;;;;;;5.10;2.45;;;18.60;99.90;;;;;;4843813;29;20171;-68
2023/10/03 12:49:59;;;;;;;4.97;3.00;;;18.60;99.90;;;;;;4844024;29;20188;-67
2023/10/03 12:52:28;;;;;;;5.40;2.65;;;18.50;99.90;;;;;;4843939;29;20510;-66
2023/10/03 12:54:55;;;;;;;4.15;2.83;;;18.40;99.90;;;;;;4843622;29;20224;-66
2023/10/03 12:57:21;;;;;;;4.50;2.70;;;18.40;99.90;;;;;;4843497;29;20187;-64